METAR Analyzer

一覧表示

Hello, Guest. (Login)

EDDF/FRA  -  フランクフルト

観測日時
2021-08-05 02:20 (UTC) (18分前)
気温
14
露点
13
湿数
1
相対湿度
93.7%
QNH
1011hPa
推定現地気圧
997.8hPa
推定海面気圧
1011.1hPa
体感温度
8.7
(無風時)
16.2
HI
13.9
気温前日比
±0
体感温度前日比
±0
HI前日比
±0
水平視程
>10000m
鉛直視程
データなし
雲底高度
No dense clouds
V/I
VMC (VFR)
RVR
No RVR data
卓越風
3kt from 150° (130° ~ 190°)
ガスト
No gust
降水
報告なし
その他の天気
報告なし
報告なし

EDDF 050220Z 15003KT 130V190 CAVOK 14/13 Q1011 NOSIG

EDDM/MUC  -  ミュンヘン

観測日時
2021-08-05 02:20 (UTC) (18分前)
気温
13
露点
13
湿数
0
相対湿度
100%
QNH
1012hPa
推定現地気圧
958.8hPa
推定海面気圧
1011.8hPa
体感温度
11
(無風時)
15.3
HI
13
気温前日比
±0
体感温度前日比
+6.3
HI前日比
+0.2
水平視程
7000m
鉛直視程
データなし
雲底高度
600ft AGL
V/I
SVMC (SVFR)
RVR
No RVR data
卓越風
1kt from VRB
ガスト
No gust
降水
弱い雨
その他の天気
報告なし
隙間のある雲 @ 600ft AGL / 隙間のある雲 @ 2000ft AGL

EDDM 050220Z VRB01KT 7000 -RA BKN006 BKN020 13/13 Q1012 NOSIG

EDDL/DUS  -  デュッセルドルフ

観測日時
2021-08-05 02:20 (UTC) (18分前)
気温
15
露点
14
湿数
1
相対湿度
93.7%
QNH
1011hPa
推定現地気圧
1005.6hPa
推定海面気圧
1011.0hPa
体感温度
11.2
(無風時)
17
HI
15
気温前日比
+3
体感温度前日比
-3.2
HI前日比
+3.1
水平視程
>10000m
鉛直視程
データなし
雲底高度
No dense clouds
V/I
VMC (VFR)
RVR
No RVR data
卓越風
2kt from VRB
ガスト
No gust
降水
報告なし
その他の天気
報告なし
報告なし

EDDL 050220Z VRB02KT CAVOK 15/14 Q1011 NOSIG

LFPG/CDG  -  パリ=シャルル・ド・ゴール

観測日時
2021-08-05 02:00 (UTC) (38分前)
気温
17
露点
14
湿数
3
相対湿度
82.5%
QNH
1011hPa
推定現地気圧
996.8hPa
推定海面気圧
1010.9hPa
体感温度
12.2
(無風時)
18.5
HI
16.9
気温前日比
+4
体感温度前日比
+3.2
HI前日比
+4.3
水平視程
>10000m
鉛直視程
データなし
雲底高度
4000ft AGL
V/I
VMC (VFR)
RVR
No RVR data
卓越風
3kt from 10°
ガスト
No gust
降水
報告なし
その他の天気
報告なし
隙間のある雲 @ 4000ft AGL / 隙間のある雲 @ 6000ft AGL

LFPG 050200Z 01003KT 9999 BKN040 BKN060 17/14 Q1011 NOSIG

EGLL/LHR  -  ロンドン・ヒースロー

観測日時
2021-08-05 02:20 (UTC) (18分前)
気温
15
露点
12
湿数
3
相対湿度
82.2%
QNH
1010hPa
推定現地気圧
1007.0hPa
推定海面気圧
1010.0hPa
体感温度
8.1
(無風時)
16.8
HI
14.7
気温前日比
+2
体感温度前日比
-2.9
HI前日比
+1.9
水平視程
>10000m
鉛直視程
データなし
雲底高度
No dense clouds
V/I
VMC (VFR)
RVR
No RVR data
卓越風
5kt from 210°
ガスト
No gust
降水
報告なし
その他の天気
報告なし
少しの雲 @ 4900ft AGL

EGLL 050220Z AUTO 21005KT 9999 FEW049 15/12 Q1010

19.2msec